ADDS METAR Data INFO
IDs: Format: Raw Decoded Include TAF

Data at: 1955 UTC 18 Feb 2018

KMKN 181935Z AUTO 10SM -RA OVC006 13/13 A2994 RMK AO2 T01320132
KMKN 181915Z AUTO 14011KT 10SM OVC006 12/12 A2996 RMK AO2 T01240124
KMKN 181855Z AUTO 15013G19KT 10SM OVC006 12/12 A2999 RMK AO2 T01160116
KMKN 181835Z AUTO 16014G20KT 7SM BKN006 BKN012 OVC100 12/12 A3001 RMK AO2 T01150115
KMKN 181815Z AUTO 16013G18KT 7SM -RA SCT037 SCT050 OVC100 12/12 A3004 RMK AO2 T01150115
KMKN 181755Z AUTO 16010KT 7SM SCT025 SCT032 OVC110 12/12 A3006 RMK AO2 P0017 60018 T01150115 10121 20055
KMKN 181735Z AUTO 17011KT 7SM -RA BKN025 BKN033 OVC044 12/12 A3009 RMK AO2 LTG DSNT S P0017 T01150115
KMKN 181715Z AUTO 17003KT 2SM -RA BKN009 OVC030 11/11 A3010 RMK AO2 LTG DSNT SE AND S P0016 T01110111
KMKN 181655Z AUTO 00000KT 7SM RA OVC009 12/10 A3013 RMK AO2 LTG DSNT S P0001 T01170102
KMKN 181635Z AUTO 20004KT 10SM OVC009 12/09 A3013 RMK AO2 T01200093
KMKN 181615Z AUTO 18004KT 10SM OVC009 12/09 A3012 RMK AO2 LTG DSNT S T01170088
KMKN 181555Z AUTO 16006KT 10SM OVC011 11/09 A3012 RMK AO2 T01110087
KMKN 181535Z AUTO 16006KT 10SM OVC013 10/09 A3012 RMK AO2 T01010093
KMKN 181515Z AUTO 16007KT 7SM OVC013 10/10 A3012 RMK AO2 T00950095
KMKN 181455Z AUTO 15007KT 7SM SCT003 OVC017 09/09 A3011 RMK AO2 T00900090
KMKN 181435Z AUTO 14004KT 4SM BR BKN003 OVC019 08/08 A3012 RMK AO2 T00820082
KMKN 181415Z AUTO 14005KT 2 1/2SM BR OVC003 08/08 A3011 RMK AO2 T00780078
KMKN 181355Z AUTO 13007KT 1 3/4SM BR OVC003 08/08 A3011 RMK AO2 T00750075
KMKN 181335Z AUTO 15006KT 1/2SM FG OVC003 07/07 A3012 RMK AO2 T00700070
KMKN 181315Z AUTO 14004KT 1 1/4SM BR OVC003 07/07 A3012 RMK AO2 T00650065
KMKN 181255Z AUTO 13005KT 7SM OVC003 06/06 A3012 RMK AO2 T00610061
KMKN 181235Z AUTO 10003KT 7SM BKN005 BKN038 06/06 A3012 RMK AO2 T00560056
KMKN 181215Z AUTO 00000KT 7SM CLR 06/06 A3012 RMK AO2 T00640064
KMKN 181155Z AUTO 00000KT 7SM CLR 06/06 A3011 RMK AO2 T00600060 10100 20060
KMKN 181135Z AUTO 16003KT 7SM CLR 06/06 A3011 RMK AO2 T00640064
KMKN 181115Z AUTO 14003KT 7SM CLR 06/06 A3012 RMK AO2 T00620062
KMKN 181055Z AUTO 15005KT 10SM CLR 06/06 A3012 RMK AO2 T00620062
KMKN 181035Z AUTO 15005KT 10SM CLR 07/07 A3013 RMK AO2 T00660065
KMKN 181015Z AUTO 15005KT 10SM CLR 07/06 A3014 RMK AO2 T00650055
KMKN 180955Z AUTO 15005KT 10SM CLR 06/05 A3014 RMK AO2 T00640051
KMKN 180935Z AUTO 15005KT 10SM CLR 07/05 A3014 RMK AO2 T00660051
KMKN 180915Z AUTO 14005KT 10SM CLR 07/05 A3014 RMK AO2 T00650050
KMKN 180855Z AUTO 15005KT 10SM CLR 07/05 A3015 RMK AO2 T00710052
KMKN 180835Z AUTO 14004KT 10SM CLR 08/05 A3015 RMK AO2 T00760054
KMKN 180815Z AUTO 12003KT 10SM CLR 08/06 A3015 RMK AO2 T00760055
KMKN 180755Z AUTO 13004KT 10SM CLR 08/05 A3015 RMK AO2 T00780054
KMKN 180735Z AUTO 16004KT 10SM CLR 08/06 A3015 RMK AO2 T00830055
KMKN 180715Z AUTO 16005KT 10SM CLR 09/06 A3015 RMK AO2 T00850055
KMKN 180655Z AUTO 18006KT 10SM CLR 09/05 A3016 RMK AO2 T00860054
KMKN 180635Z AUTO 16006KT 10SM CLR 09/06 A3016 RMK AO2 T00890055
KMKN 180615Z AUTO 15004KT 10SM CLR 09/06 A3017 RMK AO2 T00920055
KMKN 180555Z AUTO 14005KT 10SM CLR 10/06 A3017 RMK AO2 T01000058 10190 20100 402220058
KMKN 180535Z AUTO 13005KT 10SM CLR 11/06 A3018 RMK AO2 T01050060
KMKN 180515Z AUTO 11006KT 10SM CLR 11/07 A3018 RMK AO2 T01070065
KMKN 180455Z AUTO 08005KT 10SM CLR 11/07 A3018 RMK AO2 T01110065
KMKN 180435Z AUTO 08005KT 10SM CLR 12/06 A3018 RMK AO2 T01150063
KMKN 180415Z AUTO 08004KT 10SM CLR 12/06 A3019 RMK AO2 T01200063
KMKN 180355Z AUTO 08003KT 10SM CLR 12/06 A3019 RMK AO2 T01200062
KMKN 180335Z AUTO 08004KT 10SM CLR 13/06 A3019 RMK AO2 T01260062
KMKN 180315Z AUTO 06006KT 10SM CLR 13/07 A3018 RMK AO2 T01320065
KMKN 180255Z AUTO 05004KT 10SM CLR 13/07 A3018 RMK AO2 T01320065
KMKN 180235Z AUTO 06005KT 10SM CLR 14/06 A3017 RMK AO2 T01380063
KMKN 180215Z AUTO 09004KT 10SM CLR 14/07 A3017 RMK AO2 T01420065
KMKN 180155Z AUTO 04005KT 10SM CLR 15/07 A3016 RMK AO2 T01450066
KMKN 180135Z AUTO 06003KT 10SM CLR 15/07 A3016 RMK AO2 T01520066
KMKN 180115Z AUTO 07005KT 10SM CLR 16/07 A3015 RMK AO2 T01550068
KMKN 180055Z AUTO 08004KT 10SM CLR 16/07 A3014 RMK AO2 T01620068
KMKN 180035Z AUTO 05005KT 10SM CLR 17/07 A3014 RMK AO2 T01690070
KMKN 180015Z AUTO 06007KT 10SM CLR 18/07 A3012 RMK AO2 T01790069
KMKN 172355Z AUTO 04010KT 10SM CLR 19/07 A3012 RMK AO2 T01900070 10222 20154
KMKN 172335Z AUTO 03011KT 10SM CLR 20/06 A3010 RMK AO2 T01980064
KMKN 172315Z AUTO 02006KT 10SM CLR 21/06 A3010 RMK AO2 T02070057
KMKN 172255Z AUTO 02007KT 10SM CLR 22/06 A3010 RMK AO2 T02170061
KMKN 172235Z AUTO 03009KT 10SM CLR 22/06 A3009 RMK AO2 T02180061
KMKN 172215Z AUTO 01008KT 10SM CLR 22/06 A3009 RMK AO2 T02200061
KMKN 172155Z AUTO 01007G16KT 10SM CLR 22/06 A3009 RMK AO2 T02210062
KMKN 172135Z AUTO 00000KT 10SM CLR 21/07 A3008 RMK AO2 T02130066
KMKN 172115Z AUTO 36003KT 10SM CLR 22/07 A3008 RMK AO2 T02150066
KMKN 172055Z AUTO 36003KT 10SM CLR 21/07 A3008 RMK AO2 T02100066
KMKN 172035Z AUTO 35004KT 10SM CLR 21/07 A3008 RMK AO2 T02080065
KMKN 172015Z AUTO 32007KT 10SM CLR 22/07 A3008 RMK AO2 T02180066
KMKN 171955Z AUTO 31005KT 10SM CLR 20/06 A3009 RMK AO2 T02000064
KMKN 171935Z AUTO 31006KT 10SM CLR 19/06 A3010 RMK AO2 T01940062
KMKN 171915Z AUTO 29007KT 10SM CLR 18/06 A3010 RMK AO2 T01820061
KMKN 171855Z AUTO 31005KT 10SM CLR 18/06 A3011 RMK AO2 T01820059
KMKN 171835Z AUTO 27008KT 10SM SCT075 17/06 A3012 RMK AO2 T01680060
KMKN 171815Z AUTO 29007KT 10SM SCT065 16/05 A3014 RMK AO2 T01580053
KMKN 171755Z AUTO 31003KT 10SM OVC065 15/05 A3014 RMK AO2 T01490050 10149 20060
KMKN 171735Z AUTO 36006KT 10SM SCT031 SCT042 OVC055 14/05 A3014 RMK AO2 T01420047
KMKN 171715Z AUTO 20003KT 10SM BKN031 OVC040 12/05 A3014 RMK AO2 T01220045
KMKN 171655Z AUTO 25003KT 10SM BKN031 BKN100 11/04 A3014 RMK AO2 T01120044
KMKN 171635Z AUTO 33005KT 10SM SCT033 SCT100 11/04 A3016 RMK AO2 T01060041
KMKN 171615Z AUTO 32003KT 10SM BKN100 10/04 A3015 RMK AO2 T00990038
KMKN 171555Z AUTO 34005KT 10SM OVC100 09/04 A3015 RMK AO2 T00880035
KMKN 171535Z AUTO 02003KT 10SM SCT037 OVC100 08/03 A3014 RMK AO2 T00830031
KMKN 171515Z AUTO 34009KT 10SM OVC100 08/03 A3014 RMK AO2 T00820030
KMKN 171455Z AUTO 36003KT 10SM OVC090 09/01 A3011 RMK AO2 T00850014
KMKN 171435Z AUTO 18006KT 10SM OVC090 08/01 A3007 RMK AO2 T00810010
KMKN 171415Z AUTO 18007KT 10SM SCT075 OVC090 08/01 A3006 RMK AO2 T00780010
KMKN 171355Z AUTO 18010KT 10SM BKN075 OVC090 07/01 A3004 RMK AO2 T00710005
KMKN 171335Z AUTO 18007KT 10SM SCT024 OVC075 07/00 A3008 RMK AO2 T00690003
KMKN 171315Z AUTO 19005KT 10SM OVC026 07/00 A3009 RMK AO2 T00660001
KMKN 171255Z AUTO 20003KT 10SM BKN026 OVC060 06/00 A3009 RMK AO2 T00630000
KMKN 171235Z AUTO 21003KT 10SM BKN028 OVC060 06/00 A3010 RMK AO2 T00630000
KMKN 171215Z AUTO 00000KT 10SM BKN028 BKN042 OVC060 06/00 A3011 RMK AO2 T00600000
KMKN 171155Z AUTO 00000KT 10SM OVC028 06/00 A3011 RMK AO2 T00600000 10073 20058
KMKN 171135Z AUTO 34004KT 10SM OVC028 06/00 A3011 RMK AO2 T00600000
KMKN 171115Z AUTO 33005KT 10SM OVC028 06/00 A3012 RMK AO2 LTG DSNT NE T00580000
KMKN 171055Z AUTO 34008KT 10SM OVC028 06/00 A3012 RMK AO2 T00590000
KMKN 171035Z AUTO 34009KT 10SM OVC028 06/00 A3012 RMK AO2 T00590000
KMKN 171015Z AUTO 34010KT 10SM OVC030 06/00 A3012 RMK AO2 T00620000
KMKN 170955Z AUTO 35010G16KT 10SM OVC030 06/00 A3012 RMK AO2 T00620002
KMKN 170935Z AUTO 33011G18KT 10SM OVC030 07/M01 A3014 RMK AO2 T00701006
KMKN 170915Z AUTO 32012G20KT 10SM OVC030 07/00 A3013 RMK AO2 T00720000
KMKN 170855Z AUTO 33009KT 10SM OVC028 07/00 A3013 RMK AO2 T00730002
KMKN 170835Z AUTO 32005KT 10SM OVC026 07/00 A3011 RMK AO2 T00710003
KMKN 170815Z AUTO 00000KT 10SM OVC026 07/00 A3009 RMK AO2 T00700004